sensor_id;sensor_type;location;lat;lon;timestamp;temperature;humidity
4739;DHT22;2383;48.632;10.156;2023-05-10T00:00:22;14.20;99.90
4739;DHT22;2383;48.632;10.156;2023-05-10T00:04:25;14.20;99.90
4739;DHT22;2383;48.632;10.156;2023-05-10T00:08:30;14.20;99.90
4739;DHT22;2383;48.632;10.156;2023-05-10T00:12:32;14.20;99.90
4739;DHT22;2383;48.632;10.156;2023-05-10T00:16:34;14.30;99.90
4739;DHT22;2383;48.632;10.156;2023-05-10T00:20:36;14.30;99.90
4739;DHT22;2383;48.632;10.156;2023-05-10T00:24:38;14.30;99.90
4739;DHT22;2383;48.632;10.156;2023-05-10T00:28:40;14.00;99.90
4739;DHT22;2383;48.632;10.156;2023-05-10T00:32:42;14.10;99.90
4739;DHT22;2383;48.632;10.156;2023-05-10T00:36:45;14.10;99.90
4739;DHT22;2383;48.632;10.156;2023-05-10T00:40:47;14.00;99.90
4739;DHT22;2383;48.632;10.156;2023-05-10T00:44:58;14.10;99.90
4739;DHT22;2383;48.632;10.156;2023-05-10T00:49:00;13.90;99.90
4739;DHT22;2383;48.632;10.156;2023-05-10T00:53:03;13.90;99.90
4739;DHT22;2383;48.632;10.156;2023-05-10T00:57:05;13.90;99.90
4739;DHT22;2383;48.632;10.156;2023-05-10T01:01:08;13.50;99.90
4739;DHT22;2383;48.632;10.156;2023-05-10T01:05:11;13.50;99.90
4739;DHT22;2383;48.632;10.156;2023-05-10T01:09:13;13.40;99.90
4739;DHT22;2383;48.632;10.156;2023-05-10T01:13:29;13.30;99.90
4739;DHT22;2383;48.632;10.156;2023-05-10T01:17:32;13.20;99.90
4739;DHT22;2383;48.632;10.156;2023-05-10T01:34:29;13.60;99.90
4739;DHT22;2383;48.632;10.156;2023-05-10T01:38:54;13.60;99.90
4739;DHT22;2383;48.632;10.156;2023-05-10T01:43:03;13.50;99.90
4739;DHT22;2383;48.632;10.156;2023-05-10T01:47:17;13.60;99.90
4739;DHT22;2383;48.632;10.156;2023-05-10T01:51:27;13.60;99.90
4739;DHT22;2383;48.632;10.156;2023-05-10T01:55:33;13.60;99.90
4739;DHT22;2383;48.632;10.156;2023-05-10T01:59:38;13.50;99.90
4739;DHT22;2383;48.632;10.156;2023-05-10T02:03:43;13.30;99.90
4739;DHT22;2383;48.632;10.156;2023-05-10T02:07:47;12.80;99.90
4739;DHT22;2383;48.632;10.156;2023-05-10T02:11:49;12.00;99.90
4739;DHT22;2383;48.632;10.156;2023-05-10T02:15:52;12.00;99.90
4739;DHT22;2383;48.632;10.156;2023-05-10T02:19:55;11.70;99.90
4739;DHT22;2383;48.632;10.156;2023-05-10T02:23:59;11.20;99.90
4739;DHT22;2383;48.632;10.156;2023-05-10T02:28:05;11.40;99.90
4739;DHT22;2383;48.632;10.156;2023-05-10T02:32:10;11.70;99.90
4739;DHT22;2383;48.632;10.156;2023-05-10T02:36:13;11.80;99.90
4739;DHT22;2383;48.632;10.156;2023-05-10T02:40:18;11.80;99.90
4739;DHT22;2383;48.632;10.156;2023-05-10T02:44:22;11.30;99.90
4739;DHT22;2383;48.632;10.156;2023-05-10T02:48:25;11.00;99.90
4739;DHT22;2383;48.632;10.156;2023-05-10T02:52:30;11.00;99.90
4739;DHT22;2383;48.632;10.156;2023-05-10T02:56:43;10.80;99.90
4739;DHT22;2383;48.632;10.156;2023-05-10T03:00:48;11.00;99.90
4739;DHT22;2383;48.632;10.156;2023-05-10T03:04:50;10.90;99.90
4739;DHT22;2383;48.632;10.156;2023-05-10T03:08:53;10.40;99.90
4739;DHT22;2383;48.632;10.156;2023-05-10T03:13:05;10.50;99.90
4739;DHT22;2383;48.632;10.156;2023-05-10T03:17:19;11.00;99.90
4739;DHT22;2383;48.632;10.156;2023-05-10T03:21:25;11.40;99.90
4739;DHT22;2383;48.632;10.156;2023-05-10T03:25:31;11.40;99.90
4739;DHT22;2383;48.632;10.156;2023-05-10T03:29:33;11.80;99.90
4739;DHT22;2383;48.632;10.156;2023-05-10T03:33:46;11.70;99.90
4739;DHT22;2383;48.632;10.156;2023-05-10T03:37:48;11.90;99.90
4739;DHT22;2383;48.632;10.156;2023-05-10T03:41:51;12.00;99.90
4739;DHT22;2383;48.632;10.156;2023-05-10T03:45:53;11.40;99.90
4739;DHT22;2383;48.632;10.156;2023-05-10T03:49:55;11.10;99.90
4739;DHT22;2383;48.632;10.156;2023-05-10T03:53:58;11.30;99.90
4739;DHT22;2383;48.632;10.156;2023-05-10T03:57:59;11.30;99.90
4739;DHT22;2383;48.632;10.156;2023-05-10T04:02:02;11.40;99.90
4739;DHT22;2383;48.632;10.156;2023-05-10T04:06:05;11.60;99.90
4739;DHT22;2383;48.632;10.156;2023-05-10T04:10:07;12.00;99.90
4739;DHT22;2383;48.632;10.156;2023-05-10T04:14:09;12.00;99.90
4739;DHT22;2383;48.632;10.156;2023-05-10T04:18:11;12.00;99.90
4739;DHT22;2383;48.632;10.156;2023-05-10T04:22:13;12.00;99.90
4739;DHT22;2383;48.632;10.156;2023-05-10T04:26:15;12.00;99.90
4739;DHT22;2383;48.632;10.156;2023-05-10T04:30:17;11.60;99.90
4739;DHT22;2383;48.632;10.156;2023-05-10T04:34:23;11.80;99.90
4739;DHT22;2383;48.632;10.156;2023-05-10T04:38:25;12.00;99.90
4739;DHT22;2383;48.632;10.156;2023-05-10T04:42:27;11.90;99.90
4739;DHT22;2383;48.632;10.156;2023-05-10T04:46:29;12.10;99.90
4739;DHT22;2383;48.632;10.156;2023-05-10T04:50:31;12.20;99.90
4739;DHT22;2383;48.632;10.156;2023-05-10T04:54:33;12.30;99.90
4739;DHT22;2383;48.632;10.156;2023-05-10T04:58:36;12.40;99.90
4739;DHT22;2383;48.632;10.156;2023-05-10T05:02:38;12.30;99.90
4739;DHT22;2383;48.632;10.156;2023-05-10T05:06:43;11.80;99.90
4739;DHT22;2383;48.632;10.156;2023-05-10T05:10:45;12.10;99.90
4739;DHT22;2383;48.632;10.156;2023-05-10T05:14:47;12.40;99.90
4739;DHT22;2383;48.632;10.156;2023-05-10T05:18:49;12.50;99.90
4739;DHT22;2383;48.632;10.156;2023-05-10T05:22:51;12.60;99.90
4739;DHT22;2383;48.632;10.156;2023-05-10T05:26:53;12.80;99.90
4739;DHT22;2383;48.632;10.156;2023-05-10T05:30:55;12.90;99.90
4739;DHT22;2383;48.632;10.156;2023-05-10T05:34:57;12.90;99.90
4739;DHT22;2383;48.632;10.156;2023-05-10T05:39:00;12.70;99.90
4739;DHT22;2383;48.632;10.156;2023-05-10T05:43:02;12.80;99.90
4739;DHT22;2383;48.632;10.156;2023-05-10T05:47:04;12.70;99.90
4739;DHT22;2383;48.632;10.156;2023-05-10T05:51:06;12.50;99.90
4739;DHT22;2383;48.632;10.156;2023-05-10T05:55:09;12.60;99.90
4739;DHT22;2383;48.632;10.156;2023-05-10T05:59:11;12.80;99.90
4739;DHT22;2383;48.632;10.156;2023-05-10T06:03:13;12.90;99.90
4739;DHT22;2383;48.632;10.156;2023-05-10T06:07:15;12.70;99.90
4739;DHT22;2383;48.632;10.156;2023-05-10T06:11:17;12.90;99.90
4739;DHT22;2383;48.632;10.156;2023-05-10T06:15:18;13.00;99.90
4739;DHT22;2383;48.632;10.156;2023-05-10T06:19:21;13.10;99.90
4739;DHT22;2383;48.632;10.156;2023-05-10T06:23:23;13.20;99.90
4739;DHT22;2383;48.632;10.156;2023-05-10T06:27:27;12.90;99.90
4739;DHT22;2383;48.632;10.156;2023-05-10T06:31:29;12.70;99.90
4739;DHT22;2383;48.632;10.156;2023-05-10T06:35:31;12.40;99.90
4739;DHT22;2383;48.632;10.156;2023-05-10T06:39:35;12.50;99.90
4739;DHT22;2383;48.632;10.156;2023-05-10T06:43:37;12.40;99.90
4739;DHT22;2383;48.632;10.156;2023-05-10T06:47:41;12.80;99.90
4739;DHT22;2383;48.632;10.156;2023-05-10T06:51:44;12.90;99.90
4739;DHT22;2383;48.632;10.156;2023-05-10T06:55:46;13.00;99.90
4739;DHT22;2383;48.632;10.156;2023-05-10T06:59:48;13.10;99.90
4739;DHT22;2383;48.632;10.156;2023-05-10T07:03:50;12.90;99.90
4739;DHT22;2383;48.632;10.156;2023-05-10T07:07:52;13.10;99.90
4739;DHT22;2383;48.632;10.156;2023-05-10T07:11:54;12.80;99.90
4739;DHT22;2383;48.632;10.156;2023-05-10T07:15:56;12.50;99.90
4739;DHT22;2383;48.632;10.156;2023-05-10T07:19:59;12.50;99.90
4739;DHT22;2383;48.632;10.156;2023-05-10T07:24:02;12.80;99.90
4739;DHT22;2383;48.632;10.156;2023-05-10T07:28:04;13.20;99.90
4739;DHT22;2383;48.632;10.156;2023-05-10T07:32:07;13.30;99.90
4739;DHT22;2383;48.632;10.156;2023-05-10T07:36:09;13.10;99.90
4739;DHT22;2383;48.632;10.156;2023-05-10T07:40:11;12.20;99.90
4739;DHT22;2383;48.632;10.156;2023-05-10T07:44:13;12.90;99.90
4739;DHT22;2383;48.632;10.156;2023-05-10T07:48:15;13.20;99.90
4739;DHT22;2383;48.632;10.156;2023-05-10T07:52:17;12.40;99.90
4739;DHT22;2383;48.632;10.156;2023-05-10T07:56:28;12.90;99.90
4739;DHT22;2383;48.632;10.156;2023-05-10T08:00:31;13.20;99.90
4739;DHT22;2383;48.632;10.156;2023-05-10T08:04:33;13.00;99.90
4739;DHT22;2383;48.632;10.156;2023-05-10T08:08:35;13.30;99.90
4739;DHT22;2383;48.632;10.156;2023-05-10T08:12:38;13.50;99.90
4739;DHT22;2383;48.632;10.156;2023-05-10T08:16:40;13.60;99.90
4739;DHT22;2383;48.632;10.156;2023-05-10T08:20:42;13.50;99.90
4739;DHT22;2383;48.632;10.156;2023-05-10T08:24:43;13.30;99.90
4739;DHT22;2383;48.632;10.156;2023-05-10T08:28:46;13.10;99.90
4739;DHT22;2383;48.632;10.156;2023-05-10T08:32:47;13.50;99.90
4739;DHT22;2383;48.632;10.156;2023-05-10T08:36:50;13.50;99.90
4739;DHT22;2383;48.632;10.156;2023-05-10T08:40:54;13.00;99.90
4739;DHT22;2383;48.632;10.156;2023-05-10T08:44:59;12.80;99.90
4739;DHT22;2383;48.632;10.156;2023-05-10T08:49:02;12.30;99.90
4739;DHT22;2383;48.632;10.156;2023-05-10T08:53:09;12.60;99.90
4739;DHT22;2383;48.632;10.156;2023-05-10T08:57:11;12.20;99.90
4739;DHT22;2383;48.632;10.156;2023-05-10T09:01:15;12.70;99.90
4739;DHT22;2383;48.632;10.156;2023-05-10T09:05:17;12.90;99.90
4739;DHT22;2383;48.632;10.156;2023-05-10T09:09:20;12.90;99.90
4739;DHT22;2383;48.632;10.156;2023-05-10T09:13:24;13.50;99.90
4739;DHT22;2383;48.632;10.156;2023-05-10T09:17:27;13.90;99.90
4739;DHT22;2383;48.632;10.156;2023-05-10T09:21:30;14.20;99.90
4739;DHT22;2383;48.632;10.156;2023-05-10T09:25:33;13.90;98.90
4739;DHT22;2383;48.632;10.156;2023-05-10T09:29:44;13.50;99.90
4739;DHT22;2383;48.632;10.156;2023-05-10T09:33:48;13.60;99.30
4739;DHT22;2383;48.632;10.156;2023-05-10T09:37:53;13.40;99.00
4739;DHT22;2383;48.632;10.156;2023-05-10T09:42:03;13.00;99.10
4739;DHT22;2383;48.632;10.156;2023-05-10T09:46:09;13.20;98.80
4739;DHT22;2383;48.632;10.156;2023-05-10T09:50:12;12.60;99.10
4739;DHT22;2383;48.632;10.156;2023-05-10T09:54:15;13.10;98.80
4739;DHT22;2383;48.632;10.156;2023-05-10T09:58:17;13.00;99.20
4739;DHT22;2383;48.632;10.156;2023-05-10T10:02:19;13.20;98.50
4739;DHT22;2383;48.632;10.156;2023-05-10T10:06:21;13.80;97.60
4739;DHT22;2383;48.632;10.156;2023-05-10T10:10:32;13.30;97.80
4739;DHT22;2383;48.632;10.156;2023-05-10T10:14:35;14.10;97.70
4739;DHT22;2383;48.632;10.156;2023-05-10T10:18:37;13.50;97.30
4739;DHT22;2383;48.632;10.156;2023-05-10T10:22:42;13.90;98.00
4739;DHT22;2383;48.632;10.156;2023-05-10T10:26:46;14.10;97.80
4739;DHT22;2383;48.632;10.156;2023-05-10T10:30:51;13.70;97.60
4739;DHT22;2383;48.632;10.156;2023-05-10T10:34:55;13.70;98.20
4739;DHT22;2383;48.632;10.156;2023-05-10T10:38:59;13.70;98.70
4739;DHT22;2383;48.632;10.156;2023-05-10T10:43:24;13.20;98.40
4739;DHT22;2383;48.632;10.156;2023-05-10T10:47:29;13.40;98.00
4739;DHT22;2383;48.632;10.156;2023-05-10T10:51:37;13.50;98.40
4739;DHT22;2383;48.632;10.156;2023-05-10T10:55:47;13.40;98.70
4739;DHT22;2383;48.632;10.156;2023-05-10T10:59:49;12.90;99.90
4739;DHT22;2383;48.632;10.156;2023-05-10T11:08:11;12.20;99.30
4739;DHT22;2383;48.632;10.156;2023-05-10T11:12:13;12.70;99.90
4739;DHT22;2383;48.632;10.156;2023-05-10T11:20:19;12.90;99.90
4739;DHT22;2383;48.632;10.156;2023-05-10T11:24:27;13.20;99.40
4739;DHT22;2383;48.632;10.156;2023-05-10T11:28:30;12.80;99.90
4739;DHT22;2383;48.632;10.156;2023-05-10T11:32:32;13.00;99.60
4739;DHT22;2383;48.632;10.156;2023-05-10T11:36:35;13.30;99.40
4739;DHT22;2383;48.632;10.156;2023-05-10T11:40:38;13.10;99.70
4739;DHT22;2383;48.632;10.156;2023-05-10T11:44:41;13.60;99.60
4739;DHT22;2383;48.632;10.156;2023-05-10T11:48:43;13.90;98.80
4739;DHT22;2383;48.632;10.156;2023-05-10T11:52:50;13.60;98.90
4739;DHT22;2383;48.632;10.156;2023-05-10T11:56:52;13.70;99.00
4739;DHT22;2383;48.632;10.156;2023-05-10T12:00:55;13.60;98.90
4739;DHT22;2383;48.632;10.156;2023-05-10T12:04:57;13.70;99.30
4739;DHT22;2383;48.632;10.156;2023-05-10T12:09:01;13.70;99.10
4739;DHT22;2383;48.632;10.156;2023-05-10T12:13:14;13.20;99.10
4739;DHT22;2383;48.632;10.156;2023-05-10T12:17:16;13.10;98.90
4739;DHT22;2383;48.632;10.156;2023-05-10T12:21:19;13.80;97.90
4739;DHT22;2383;48.632;10.156;2023-05-10T12:25:23;13.40;97.40
4739;DHT22;2383;48.632;10.156;2023-05-10T12:29:25;13.60;97.30
4739;DHT22;2383;48.632;10.156;2023-05-10T12:33:39;13.30;97.40
4739;DHT22;2383;48.632;10.156;2023-05-10T12:37:43;13.30;97.70
4739;DHT22;2383;48.632;10.156;2023-05-10T12:41:45;13.30;97.90
4739;DHT22;2383;48.632;10.156;2023-05-10T12:45:47;12.60;98.50
4739;DHT22;2383;48.632;10.156;2023-05-10T12:49:50;13.30;98.50
4739;DHT22;2383;48.632;10.156;2023-05-10T12:53:53;12.00;99.30
4739;DHT22;2383;48.632;10.156;2023-05-10T12:57:55;12.10;99.30
4739;DHT22;2383;48.632;10.156;2023-05-10T13:01:57;13.00;99.00
4739;DHT22;2383;48.632;10.156;2023-05-10T13:06:00;13.10;98.90
4739;DHT22;2383;48.632;10.156;2023-05-10T13:10:02;13.50;98.30
4739;DHT22;2383;48.632;10.156;2023-05-10T13:14:04;13.60;98.00
4739;DHT22;2383;48.632;10.156;2023-05-10T13:18:06;12.50;98.20
4739;DHT22;2383;48.632;10.156;2023-05-10T13:22:08;10.80;99.10
4739;DHT22;2383;48.632;10.156;2023-05-10T13:26:10;10.00;99.60
4739;DHT22;2383;48.632;10.156;2023-05-10T13:30:13;9.90;99.90
4739;DHT22;2383;48.632;10.156;2023-05-10T13:34:15;9.70;99.90
4739;DHT22;2383;48.632;10.156;2023-05-10T13:38:17;9.60;99.90
4739;DHT22;2383;48.632;10.156;2023-05-10T13:42:22;10.10;99.90
4739;DHT22;2383;48.632;10.156;2023-05-10T13:46:25;9.70;99.90
4739;DHT22;2383;48.632;10.156;2023-05-10T13:50:27;9.90;99.90
4739;DHT22;2383;48.632;10.156;2023-05-10T13:54:29;10.40;99.90
4739;DHT22;2383;48.632;10.156;2023-05-10T13:58:33;10.50;99.90
4739;DHT22;2383;48.632;10.156;2023-05-10T14:02:35;10.90;99.90
4739;DHT22;2383;48.632;10.156;2023-05-10T14:06:37;10.30;99.90
4739;DHT22;2383;48.632;10.156;2023-05-10T14:10:39;11.10;99.90
4739;DHT22;2383;48.632;10.156;2023-05-10T14:14:41;10.90;99.90
4739;DHT22;2383;48.632;10.156;2023-05-10T14:18:43;10.90;99.90
4739;DHT22;2383;48.632;10.156;2023-05-10T14:22:45;10.50;99.90
4739;DHT22;2383;48.632;10.156;2023-05-10T14:26:47;10.70;99.90
4739;DHT22;2383;48.632;10.156;2023-05-10T14:30:50;11.40;99.90
4739;DHT22;2383;48.632;10.156;2023-05-10T14:34:52;11.80;99.90
4739;DHT22;2383;48.632;10.156;2023-05-10T14:38:54;12.10;99.90
4739;DHT22;2383;48.632;10.156;2023-05-10T14:42:56;12.50;99.90
4739;DHT22;2383;48.632;10.156;2023-05-10T14:46:59;12.60;99.90
4739;DHT22;2383;48.632;10.156;2023-05-10T14:51:01;12.80;99.90
4739;DHT22;2383;48.632;10.156;2023-05-10T14:55:04;12.90;99.90
4739;DHT22;2383;48.632;10.156;2023-05-10T14:59:05;13.00;99.90
4739;DHT22;2383;48.632;10.156;2023-05-10T15:03:08;13.00;99.90
4739;DHT22;2383;48.632;10.156;2023-05-10T15:07:11;13.10;99.90
4739;DHT22;2383;48.632;10.156;2023-05-10T15:11:16;13.20;99.90
4739;DHT22;2383;48.632;10.156;2023-05-10T15:15:17;13.40;99.90
4739;DHT22;2383;48.632;10.156;2023-05-10T15:19:20;13.40;99.90
4739;DHT22;2383;48.632;10.156;2023-05-10T15:23:22;12.80;99.90
4739;DHT22;2383;48.632;10.156;2023-05-10T15:27:25;12.80;99.90
4739;DHT22;2383;48.632;10.156;2023-05-10T15:31:27;13.10;99.90
4739;DHT22;2383;48.632;10.156;2023-05-10T15:35:30;13.30;99.90
4739;DHT22;2383;48.632;10.156;2023-05-10T15:39:32;13.20;99.90
4739;DHT22;2383;48.632;10.156;2023-05-10T15:43:34;13.30;99.90
4739;DHT22;2383;48.632;10.156;2023-05-10T15:47:36;13.50;99.90
4739;DHT22;2383;48.632;10.156;2023-05-10T15:51:40;13.50;99.90
4739;DHT22;2383;48.632;10.156;2023-05-10T15:55:42;13.60;99.90
4739;DHT22;2383;48.632;10.156;2023-05-10T15:59:44;13.70;99.90
4739;DHT22;2383;48.632;10.156;2023-05-10T16:03:46;13.60;99.90
4739;DHT22;2383;48.632;10.156;2023-05-10T16:07:48;13.60;99.90
4739;DHT22;2383;48.632;10.156;2023-05-10T16:11:50;13.40;99.90
4739;DHT22;2383;48.632;10.156;2023-05-10T16:15:52;13.30;99.90
4739;DHT22;2383;48.632;10.156;2023-05-10T16:19:54;13.20;99.90
4739;DHT22;2383;48.632;10.156;2023-05-10T16:23:57;13.20;99.90
4739;DHT22;2383;48.632;10.156;2023-05-10T16:28:00;13.40;99.90
4739;DHT22;2383;48.632;10.156;2023-05-10T16:32:02;13.50;99.90
4739;DHT22;2383;48.632;10.156;2023-05-10T16:36:04;13.40;99.90
4739;DHT22;2383;48.632;10.156;2023-05-10T16:40:08;13.20;99.90
4739;DHT22;2383;48.632;10.156;2023-05-10T16:44:10;13.40;99.90
4739;DHT22;2383;48.632;10.156;2023-05-10T16:48:12;13.10;99.90
4739;DHT22;2383;48.632;10.156;2023-05-10T16:52:14;12.70;99.90
4739;DHT22;2383;48.632;10.156;2023-05-10T16:56:17;13.10;99.90
4739;DHT22;2383;48.632;10.156;2023-05-10T17:00:19;13.00;99.90
4739;DHT22;2383;48.632;10.156;2023-05-10T17:04:21;13.20;99.90
4739;DHT22;2383;48.632;10.156;2023-05-10T17:08:23;13.40;99.90
4739;DHT22;2383;48.632;10.156;2023-05-10T17:12:25;13.40;99.90
4739;DHT22;2383;48.632;10.156;2023-05-10T17:16:28;13.10;99.90
4739;DHT22;2383;48.632;10.156;2023-05-10T17:20:30;13.10;99.90
4739;DHT22;2383;48.632;10.156;2023-05-10T17:24:32;12.90;99.90
4739;DHT22;2383;48.632;10.156;2023-05-10T17:28:34;13.10;99.90
4739;DHT22;2383;48.632;10.156;2023-05-10T17:32:37;13.00;99.90
4739;DHT22;2383;48.632;10.156;2023-05-10T17:36:39;12.70;99.90
4739;DHT22;2383;48.632;10.156;2023-05-10T17:40:41;12.70;99.90
4739;DHT22;2383;48.632;10.156;2023-05-10T17:44:43;12.70;99.90
4739;DHT22;2383;48.632;10.156;2023-05-10T17:48:45;12.70;99.90
4739;DHT22;2383;48.632;10.156;2023-05-10T17:52:47;12.90;99.90
4739;DHT22;2383;48.632;10.156;2023-05-10T17:56:50;12.70;99.90
4739;DHT22;2383;48.632;10.156;2023-05-10T18:00:52;12.80;99.90
4739;DHT22;2383;48.632;10.156;2023-05-10T18:04:54;12.90;99.90
4739;DHT22;2383;48.632;10.156;2023-05-10T18:09:00;13.00;99.90
4739;DHT22;2383;48.632;10.156;2023-05-10T18:13:02;13.10;99.90
4739;DHT22;2383;48.632;10.156;2023-05-10T18:17:08;13.10;99.90
4739;DHT22;2383;48.632;10.156;2023-05-10T18:21:11;12.80;99.90
4739;DHT22;2383;48.632;10.156;2023-05-10T18:25:13;12.70;99.90
4739;DHT22;2383;48.632;10.156;2023-05-10T18:29:15;12.50;99.90
4739;DHT22;2383;48.632;10.156;2023-05-10T18:33:17;12.40;99.90
4739;DHT22;2383;48.632;10.156;2023-05-10T18:37:19;12.40;99.90
4739;DHT22;2383;48.632;10.156;2023-05-10T18:41:21;12.50;99.90
4739;DHT22;2383;48.632;10.156;2023-05-10T18:45:24;12.60;99.90
4739;DHT22;2383;48.632;10.156;2023-05-10T18:49:27;12.60;99.90
4739;DHT22;2383;48.632;10.156;2023-05-10T18:53:30;12.70;99.90
4739;DHT22;2383;48.632;10.156;2023-05-10T18:57:33;12.70;99.90
4739;DHT22;2383;48.632;10.156;2023-05-10T19:01:41;12.60;99.90
4739;DHT22;2383;48.632;10.156;2023-05-10T19:05:43;12.50;99.90
4739;DHT22;2383;48.632;10.156;2023-05-10T19:09:47;12.20;99.90
4739;DHT22;2383;48.632;10.156;2023-05-10T19:13:49;12.30;99.90
4739;DHT22;2383;48.632;10.156;2023-05-10T19:17:51;12.40;99.90
4739;DHT22;2383;48.632;10.156;2023-05-10T19:21:53;12.40;99.90
4739;DHT22;2383;48.632;10.156;2023-05-10T19:25:56;12.40;99.90
4739;DHT22;2383;48.632;10.156;2023-05-10T19:29:59;12.40;99.90
4739;DHT22;2383;48.632;10.156;2023-05-10T19:34:02;12.50;99.90
4739;DHT22;2383;48.632;10.156;2023-05-10T19:38:06;12.40;99.90
4739;DHT22;2383;48.632;10.156;2023-05-10T19:42:08;12.40;99.90
4739;DHT22;2383;48.632;10.156;2023-05-10T19:46:10;12.60;99.90
4739;DHT22;2383;48.632;10.156;2023-05-10T19:50:14;12.60;99.90
4739;DHT22;2383;48.632;10.156;2023-05-10T19:54:17;12.70;99.90
4739;DHT22;2383;48.632;10.156;2023-05-10T19:58:19;12.70;99.90
4739;DHT22;2383;48.632;10.156;2023-05-10T20:02:20;12.60;99.90
4739;DHT22;2383;48.632;10.156;2023-05-10T20:06:22;12.60;99.90
4739;DHT22;2383;48.632;10.156;2023-05-10T20:10:24;12.60;99.90
4739;DHT22;2383;48.632;10.156;2023-05-10T20:14:27;12.60;99.90
4739;DHT22;2383;48.632;10.156;2023-05-10T20:18:29;12.60;99.90
4739;DHT22;2383;48.632;10.156;2023-05-10T20:22:32;12.60;99.90
4739;DHT22;2383;48.632;10.156;2023-05-10T20:26:33;12.50;99.90
4739;DHT22;2383;48.632;10.156;2023-05-10T20:30:36;12.60;99.90
4739;DHT22;2383;48.632;10.156;2023-05-10T20:34:38;12.60;99.90
4739;DHT22;2383;48.632;10.156;2023-05-10T20:38:40;12.60;99.90
4739;DHT22;2383;48.632;10.156;2023-05-10T20:42:42;12.60;99.90
4739;DHT22;2383;48.632;10.156;2023-05-10T20:46:44;12.60;99.90
4739;DHT22;2383;48.632;10.156;2023-05-10T20:50:46;12.50;99.90
4739;DHT22;2383;48.632;10.156;2023-05-10T20:54:48;12.60;99.90
4739;DHT22;2383;48.632;10.156;2023-05-10T20:58:50;12.70;99.90
4739;DHT22;2383;48.632;10.156;2023-05-10T21:02:51;12.60;99.90
4739;DHT22;2383;48.632;10.156;2023-05-10T21:06:53;12.50;99.90
4739;DHT22;2383;48.632;10.156;2023-05-10T21:10:58;12.50;99.90
4739;DHT22;2383;48.632;10.156;2023-05-10T21:15:00;12.30;99.90
4739;DHT22;2383;48.632;10.156;2023-05-10T21:19:02;12.30;99.90
4739;DHT22;2383;48.632;10.156;2023-05-10T21:23:03;12.40;99.90
4739;DHT22;2383;48.632;10.156;2023-05-10T21:27:06;12.50;99.90
4739;DHT22;2383;48.632;10.156;2023-05-10T21:31:10;12.50;99.90
4739;DHT22;2383;48.632;10.156;2023-05-10T21:35:12;12.40;99.90
4739;DHT22;2383;48.632;10.156;2023-05-10T21:39:14;12.30;99.90
4739;DHT22;2383;48.632;10.156;2023-05-10T21:43:17;12.30;99.90
4739;DHT22;2383;48.632;10.156;2023-05-10T21:47:19;12.40;99.90
4739;DHT22;2383;48.632;10.156;2023-05-10T21:51:21;12.40;99.90
4739;DHT22;2383;48.632;10.156;2023-05-10T21:55:23;12.50;99.90
4739;DHT22;2383;48.632;10.156;2023-05-10T21:59:25;12.20;99.90
4739;DHT22;2383;48.632;10.156;2023-05-10T22:03:27;12.10;99.90
4739;DHT22;2383;48.632;10.156;2023-05-10T22:07:30;12.30;99.90
4739;DHT22;2383;48.632;10.156;2023-05-10T22:11:32;12.20;99.90
4739;DHT22;2383;48.632;10.156;2023-05-10T22:15:34;12.20;99.90
4739;DHT22;2383;48.632;10.156;2023-05-10T22:19:37;12.00;99.90
4739;DHT22;2383;48.632;10.156;2023-05-10T22:23:39;12.10;99.90
4739;DHT22;2383;48.632;10.156;2023-05-10T22:27:41;12.10;99.90
4739;DHT22;2383;48.632;10.156;2023-05-10T22:31:43;12.40;99.90
4739;DHT22;2383;48.632;10.156;2023-05-10T22:35:45;12.50;99.90
4739;DHT22;2383;48.632;10.156;2023-05-10T22:39:48;12.50;99.90
4739;DHT22;2383;48.632;10.156;2023-05-10T22:43:50;12.40;99.90
4739;DHT22;2383;48.632;10.156;2023-05-10T22:47:52;12.40;99.90
4739;DHT22;2383;48.632;10.156;2023-05-10T22:51:54;12.30;99.90
4739;DHT22;2383;48.632;10.156;2023-05-10T22:55:56;12.20;99.90
4739;DHT22;2383;48.632;10.156;2023-05-10T22:59:59;12.10;99.90
4739;DHT22;2383;48.632;10.156;2023-05-10T23:04:01;12.00;99.90
4739;DHT22;2383;48.632;10.156;2023-05-10T23:08:02;11.90;99.90
4739;DHT22;2383;48.632;10.156;2023-05-10T23:12:04;11.60;99.90
4739;DHT22;2383;48.632;10.156;2023-05-10T23:16:06;11.30;99.90
4739;DHT22;2383;48.632;10.156;2023-05-10T23:20:09;11.40;99.90
4739;DHT22;2383;48.632;10.156;2023-05-10T23:24:11;11.50;99.90
4739;DHT22;2383;48.632;10.156;2023-05-10T23:28:14;11.50;99.90
4739;DHT22;2383;48.632;10.156;2023-05-10T23:32:16;11.70;99.90
4739;DHT22;2383;48.632;10.156;2023-05-10T23:36:18;11.80;99.90
4739;DHT22;2383;48.632;10.156;2023-05-10T23:40:20;11.70;99.90
4739;DHT22;2383;48.632;10.156;2023-05-10T23:44:22;11.70;99.90
4739;DHT22;2383;48.632;10.156;2023-05-10T23:48:25;11.70;99.90
4739;DHT22;2383;48.632;10.156;2023-05-10T23:52:27;11.70;99.90
4739;DHT22;2383;48.632;10.156;2023-05-10T23:56:29;11.70;99.90
